Time;durP1;ratioP1;P1;durP2;ratioP2;P2;SDS_P1;SDS_P2;PMS_P1;PMS_P2;Temp;Humidity;BMP_temperature;BMP_pressure;BME280_temperature;BME280_humidity;BME280_pressure;Samples;Min_cycle;Max_cycle;Signal;HPM_P1;HPM_P2
2022/04/19 04:01:24;;;;;;;7.60;4.50;;;2.30;99.90;;;;;;6246230;22;20518;-75
2022/04/19 04:03:49;;;;;;;4.97;4.18;;;2.30;99.90;;;;;;6252943;22;20381;-76
2022/04/19 04:06:17;;;;;;;5.35;4.43;;;2.40;99.90;;;;;;6252601;22;20064;-75
2022/04/19 04:08:42;;;;;;;5.85;4.30;;;2.50;99.90;;;;;;6252216;22;20514;-76
2022/04/19 04:11:08;;;;;;;7.45;4.80;;;2.60;99.90;;;;;;6225499;22;20009;-75
2022/04/19 04:13:33;;;;;;;7.22;4.22;;;2.50;99.90;;;;;;6252554;22;20095;-76
2022/04/19 04:15:59;;;;;;;8.13;4.53;;;2.40;99.90;;;;;;6250529;22;20501;-76
2022/04/19 04:18:24;;;;;;;7.55;4.78;;;2.40;99.90;;;;;;6251873;22;20017;-76
2022/04/19 04:20:50;;;;;;;11.68;4.75;;;2.50;99.90;;;;;;6252685;22;20084;-76
2022/04/19 04:23:15;;;;;;;6.85;4.35;;;2.50;99.90;;;;;;6252496;22;20075;-76
2022/04/19 04:25:41;;;;;;;5.80;3.97;;;2.50;99.90;;;;;;6252077;22;20013;-76
2022/04/19 04:28:06;;;;;;;6.03;4.78;;;2.60;99.90;;;;;;6224931;22;20013;-77
2022/04/19 04:30:33;;;;;;;5.80;4.53;;;2.60;99.90;;;;;;6225628;22;20015;-76
2022/04/19 04:32:59;;;;;;;8.75;4.32;;;2.70;99.90;;;;;;6252538;22;20009;-77
2022/04/19 04:35:24;;;;;;;7.82;4.72;;;2.70;99.90;;;;;;6252171;22;20017;-76
2022/04/19 04:37:50;;;;;;;6.57;5.00;;;2.60;99.90;;;;;;6252220;22;20036;-76
2022/04/19 04:40:15;;;;;;;7.35;4.90;;;2.70;99.90;;;;;;6252225;22;20440;-77
2022/04/19 04:42:41;;;;;;;6.57;4.72;;;2.70;99.90;;;;;;6252410;22;20009;-76
2022/04/19 04:45:06;;;;;;;8.27;4.43;;;2.70;99.90;;;;;;6251968;22;20574;-76
2022/04/19 04:50:16;;;;;;;6.30;4.05;;;2.70;99.90;;;;;;6252384;22;20467;-76
2022/04/19 04:52:42;;;;;;;6.57;4.35;;;2.70;99.90;;;;;;6224493;22;20004;-77
2022/04/19 04:55:08;;;;;;;7.60;4.05;;;2.70;99.90;;;;;;6252145;22;20009;-76
2022/04/19 04:57:33;;;;;;;5.35;3.88;;;2.70;99.90;;;;;;6225020;22;20088;-76
2022/04/19 04:59:59;;;;;;;6.10;4.07;;;2.80;99.90;;;;;;6251861;22;20376;-76
2022/04/19 05:02:25;;;;;;;6.00;4.40;;;2.90;99.90;;;;;;6252054;22;20009;-76
2022/04/19 05:04:50;;;;;;;4.43;3.83;;;3.00;99.90;;;;;;6225010;22;20013;-76
2022/04/19 05:07:17;;;;;;;4.72;3.60;;;3.00;99.90;;;;;;6224512;22;20005;-76
2022/04/19 05:09:42;;;;;;;5.93;4.25;;;3.00;99.90;;;;;;6251876;22;20005;-76
2022/04/19 05:12:09;;;;;;;5.57;4.18;;;3.10;99.90;;;;;;6252230;22;20003;-76
2022/04/19 05:14:35;;;;;;;8.02;4.00;;;3.20;99.90;;;;;;6252088;22;20063;-76
2022/04/19 05:17:00;;;;;;;6.85;4.15;;;3.30;99.90;;;;;;6251776;22;20009;-76
2022/04/19 05:19:26;;;;;;;6.90;4.88;;;3.40;99.90;;;;;;6224594;22;20088;-77
2022/04/19 05:21:51;;;;;;;6.85;4.70;;;3.40;99.90;;;;;;6251958;22;20007;-76
2022/04/19 05:24:17;;;;;;;9.80;5.13;;;3.50;99.90;;;;;;6224958;22;20016;-76
2022/04/19 05:26:42;;;;;;;8.18;5.15;;;3.60;99.90;;;;;;6251756;22;20012;-76
2022/04/19 05:29:08;;;;;;;7.82;4.72;;;3.60;99.90;;;;;;6251782;22;20009;-76
2022/04/19 05:31:33;;;;;;;8.55;4.53;;;3.70;99.90;;;;;;6251970;22;20076;-76
2022/04/19 05:33:59;;;;;;;8.25;4.78;;;3.80;99.90;;;;;;6251750;22;20068;-76
2022/04/19 05:36:25;;;;;;;7.53;4.65;;;3.90;99.90;;;;;;6224600;22;20011;-77
2022/04/19 05:38:52;;;;;;;8.25;5.10;;;3.90;99.90;;;;;;6251442;22;20031;-76
2022/04/19 05:41:21;;;;;;;7.72;5.32;;;4.00;99.90;;;;;;6251884;22;20040;-76
2022/04/19 05:43:49;;;;;;;8.98;5.20;;;4.00;99.90;;;;;;6224351;22;20511;-76
2022/04/19 05:46:17;;;;;;;10.55;4.90;;;4.10;99.90;;;;;;6251404;22;20005;-77
2022/04/19 05:48:43;;;;;;;7.95;5.45;;;4.10;99.90;;;;;;6251451;22;20004;-77
2022/04/19 05:51:08;;;;;;;8.40;4.88;;;4.20;99.90;;;;;;6251711;22;20004;-76
2022/04/19 05:53:34;;;;;;;7.40;4.68;;;4.20;99.90;;;;;;6251624;22;20012;-77
2022/04/19 05:55:59;;;;;;;6.55;4.47;;;4.30;99.90;;;;;;6251299;22;20753;-76
2022/04/19 05:58:25;;;;;;;6.90;4.13;;;4.40;99.90;;;;;;6224179;22;20080;-76
2022/04/19 06:00:50;;;;;;;9.80;4.93;;;4.50;99.90;;;;;;6251526;22;20017;-76
2022/04/19 06:06:00;;;;;;;10.10;5.22;;;4.60;99.90;;;;;;6252702;22;20008;-76
2022/04/19 06:08:25;;;;;;;9.60;5.70;;;4.80;99.90;;;;;;6225657;22;20005;-77
2022/04/19 06:10:51;;;;;;;8.27;5.60;;;4.90;99.90;;;;;;6253303;22;20076;-76
2022/04/19 06:13:16;;;;;;;11.27;5.50;;;5.00;99.90;;;;;;6253072;22;20040;-76
2022/04/19 06:15:42;;;;;;;8.98;5.30;;;5.10;99.90;;;;;;6229646;22;20024;-77
2022/04/19 06:18:07;;;;;;;9.90;5.88;;;5.20;99.90;;;;;;6252946;22;20643;-77
2022/04/19 06:20:34;;;;;;;8.85;5.65;;;5.20;99.90;;;;;;6252996;22;20008;-76
2022/04/19 06:22:59;;;;;;;8.15;5.35;;;5.40;99.90;;;;;;6251393;22;20008;-76
2022/04/19 06:25:25;;;;;;;8.18;5.30;;;5.50;99.90;;;;;;6252884;22;20339;-76
2022/04/19 06:27:56;;;;;;;8.85;5.53;;;5.70;99.90;;;;;;6252795;22;20080;-76
2022/04/19 06:30:21;;;;;;;8.48;5.60;;;5.80;99.90;;;;;;6251490;22;20015;-77
2022/04/19 06:32:47;;;;;;;9.80;5.72;;;5.90;99.90;;;;;;6251354;22;20096;-77
2022/04/19 06:35:12;;;;;;;7.38;5.28;;;6.00;99.90;;;;;;6252665;22;20013;-76
2022/04/19 06:37:38;;;;;;;8.65;5.28;;;6.10;99.90;;;;;;6251387;22;20004;-76
2022/04/19 06:40:06;;;;;;;12.20;5.53;;;6.20;99.90;;;;;;6250939;22;20012;-76
2022/04/19 06:42:32;;;;;;;7.22;5.57;;;6.30;99.90;;;;;;6252863;22;20012;-77
2022/04/19 06:44:57;;;;;;;7.15;5.50;;;6.40;99.90;;;;;;6252835;22;20011;-76
2022/04/19 06:47:25;;;;;;;7.50;5.38;;;6.50;99.90;;;;;;6251216;22;20005;-76
2022/04/19 06:49:52;;;;;;;9.48;6.05;;;6.60;99.90;;;;;;6252553;22;20432;-76
2022/04/19 06:52:19;;;;;;;10.07;6.10;;;6.70;99.90;;;;;;6252787;22;20005;-77
2022/04/19 06:54:47;;;;;;;7.93;6.30;;;6.80;99.90;;;;;;6252857;22;20071;-77
2022/04/19 06:57:13;;;;;;;9.10;5.55;;;6.90;99.90;;;;;;6252487;22;20005;-77
2022/04/19 06:59:38;;;;;;;7.25;5.85;;;7.10;99.90;;;;;;6250757;22;20020;-77
2022/04/19 07:02:04;;;;;;;6.60;5.38;;;7.20;99.90;;;;;;6251059;22;20009;-76
2022/04/19 07:04:29;;;;;;;10.10;6.00;;;7.30;99.90;;;;;;6253273;22;20012;-77
2022/04/19 07:06:55;;;;;;;8.25;5.55;;;7.40;99.90;;;;;;6250956;22;20013;-77
2022/04/19 07:09:21;;;;;;;10.32;5.80;;;7.60;99.90;;;;;;6250969;22;20040;-78
2022/04/19 07:11:46;;;;;;;7.47;5.80;;;7.70;99.90;;;;;;6251179;22;20013;-76
2022/04/19 07:14:12;;;;;;;7.18;5.53;;;7.90;99.90;;;;;;6252564;22;20035;-76
2022/04/19 07:16:37;;;;;;;8.23;5.65;;;8.10;99.90;;;;;;6252261;22;20008;-77
2022/04/19 07:19:06;;;;;;;12.18;5.80;;;8.20;99.90;;;;;;6225390;22;20080;-76
2022/04/19 07:27:02;;;;;;;9.15;6.30;;;8.70;99.90;;;;;;6252694;22;20016;-77
2022/04/19 07:29:28;;;;;;;8.95;5.68;;;8.90;99.90;;;;;;6252802;22;20005;-76
2022/04/19 07:31:53;;;;;;;10.88;6.18;;;9.10;99.90;;;;;;6225643;22;20017;-77
2022/04/19 07:34:19;;;;;;;8.43;5.57;;;9.30;99.90;;;;;;6225625;22;20005;-77
2022/04/19 07:36:45;;;;;;;8.27;5.93;;;9.50;99.90;;;;;;6252573;22;20012;-77
2022/04/19 07:39:13;;;;;;;7.82;5.78;;;9.70;99.90;;;;;;6225442;22;20410;-77
2022/04/19 07:41:46;;;;;;;7.85;6.22;;;9.90;99.90;;;;;;6225655;22;20087;-77
2022/04/19 07:44:14;;;;;;;10.23;6.20;;;10.10;99.90;;;;;;6253054;22;20084;-77
2022/04/19 07:46:42;;;;;;;9.35;6.50;;;10.20;99.90;;;;;;6225086;22;20016;-77
2022/04/19 07:49:08;;;;;;;10.25;5.78;;;10.40;99.90;;;;;;6252225;22;20008;-78
2022/04/19 07:51:35;;;;;;;9.70;6.38;;;10.50;99.80;;;;;;6225380;22;20314;-77
2022/04/19 07:54:01;;;;;;;11.30;5.65;;;10.70;99.90;;;;;;6252475;22;20008;-77
2022/04/19 07:56:27;;;;;;;11.10;6.13;;;10.80;99.60;;;;;;6252146;22;20043;-78
2022/04/19 07:58:52;;;;;;;8.27;5.93;;;11.00;99.20;;;;;;6252449;22;20011;-78
2022/04/19 08:01:19;;;;;;;8.80;5.65;;;11.10;98.90;;;;;;6225461;22;20097;-77
2022/04/19 08:03:45;;;;;;;8.02;5.72;;;11.30;97.20;;;;;;6225142;22;20004;-77
2022/04/19 08:06:13;;;;;;;10.85;5.85;;;11.50;97.00;;;;;;6225515;22;20009;-77
2022/04/19 08:08:42;;;;;;;12.85;6.05;;;11.50;97.40;;;;;;6225101;22;20000;-77
2022/04/19 08:11:08;;;;;;;11.27;5.57;;;11.70;96.90;;;;;;6252653;22;20087;-78
2022/04/19 08:13:33;;;;;;;8.70;5.65;;;11.90;95.70;;;;;;6252709;22;20114;-78
2022/04/19 08:15:59;;;;;;;9.60;5.63;;;12.20;95.60;;;;;;6232848;22;20016;-78
2022/04/19 08:18:25;;;;;;;8.57;6.07;;;12.30;93.70;;;;;;6252101;22;20588;-77
2022/04/19 08:20:51;;;;;;;9.27;5.78;;;12.40;94.00;;;;;;6250687;22;20023;-78
2022/04/19 08:23:17;;;;;;;10.95;5.90;;;12.70;93.90;;;;;;6252698;22;20392;-78
2022/04/19 08:25:46;;;;;;;8.90;6.25;;;13.00;93.90;;;;;;6250303;22;20076;-78
2022/04/19 08:28:11;;;;;;;10.60;6.55;;;13.20;93.30;;;;;;6250390;22;20059;-77
2022/04/19 08:30:40;;;;;;;7.07;5.40;;;13.40;93.90;;;;;;6252421;22;20443;-77
2022/04/19 08:33:06;;;;;;;8.32;6.15;;;13.60;93.50;;;;;;6250669;22;20032;-77
2022/04/19 08:35:31;;;;;;;9.43;6.10;;;13.60;91.70;;;;;;6250514;22;20090;-77
2022/04/19 08:37:57;;;;;;;9.82;6.00;;;13.90;91.60;;;;;;6250502;22;20012;-78
2022/04/19 08:40:25;;;;;;;8.38;5.68;;;14.00;90.80;;;;;;6253394;22;20031;-77
2022/04/19 08:42:51;;;;;;;9.02;6.35;;;14.10;90.00;;;;;;6254810;22;20008;-78
2022/04/19 08:45:19;;;;;;;8.48;5.80;;;14.00;90.10;;;;;;6254647;22;20024;-78
2022/04/19 08:47:47;;;;;;;11.57;6.25;;;13.80;90.10;;;;;;6254825;22;20092;-78
2022/04/19 08:50:17;;;;;;;7.70;5.88;;;14.00;88.50;;;;;;6253041;22;20020;-78
2022/04/19 08:52:43;;;;;;;11.02;6.10;;;14.00;89.90;;;;;;6252270;22;20001;-78
2022/04/19 08:57:55;;;;;;;8.02;5.95;;;14.40;88.00;;;;;;6252677;22;20538;-78
2022/04/19 09:00:23;;;;;;;9.18;6.38;;;14.60;87.80;;;;;;6255452;22;20023;-78
2022/04/19 09:02:54;;;;;;;10.68;6.00;;;14.70;86.90;;;;;;6254940;22;20083;-78
2022/04/19 09:05:26;;;;;;;7.85;6.22;;;14.80;83.90;;;;;;6253361;22;20013;-78
2022/04/19 09:07:57;;;;;;;10.13;5.82;;;14.80;81.10;;;;;;6255188;22;20004;-78
2022/04/19 09:10:32;;;;;;;8.20;5.65;;;15.10;81.60;;;;;;6255738;22;20063;-78
2022/04/19 09:13:05;;;;;;;9.07;6.00;;;15.40;81.70;;;;;;6255235;22;20433;-78
2022/04/19 09:15:38;;;;;;;9.48;6.22;;;15.70;80.80;;;;;;6253488;22;20012;-78
2022/04/19 09:18:19;;;;;;;9.13;6.10;;;15.80;79.40;;;;;;6257273;22;19996;-78
2022/04/19 09:20:54;;;;;;;10.50;6.88;;;16.00;78.00;;;;;;6256584;22;20017;-78
2022/04/19 09:23:21;;;;;;;10.40;6.40;;;15.80;78.50;;;;;;6253959;22;20001;-77
2022/04/19 09:25:50;;;;;;;9.75;6.28;;;15.70;76.00;;;;;;6253168;22;20011;-78
2022/04/19 09:28:17;;;;;;;9.30;6.63;;;15.70;77.50;;;;;;6254428;22;20007;-78
2022/04/19 09:30:44;;;;;;;9.15;6.60;;;15.90;78.00;;;;;;6253663;22;20016;-78
2022/04/19 09:33:14;;;;;;;9.38;6.10;;;16.30;76.10;;;;;;6251870;22;20044;-78
2022/04/19 09:35:50;;;;;;;13.75;5.75;;;16.80;72.20;;;;;;6253561;22;20005;-78
2022/04/19 09:38:17;;;;;;;9.43;6.20;;;16.80;68.60;;;;;;6254030;22;20365;-78
2022/04/19 09:40:47;;;;;;;9.30;6.38;;;16.70;68.80;;;;;;6254861;22;20106;-78
2022/04/19 09:43:20;;;;;;;8.00;6.25;;;16.90;69.90;;;;;;6255772;22;19996;-79
2022/04/19 09:45:51;;;;;;;8.98;6.40;;;16.80;71.40;;;;;;6254726;22;20079;-78
2022/04/19 09:48:19;;;;;;;10.48;5.95;;;17.10;72.10;;;;;;6254858;22;20001;-78
2022/04/19 09:50:57;;;;;;;10.52;5.90;;;17.20;72.50;;;;;;6255311;22;20116;-78
2022/04/19 09:53:25;;;;;;;8.63;6.47;;;17.10;69.00;;;;;;6253420;22;20456;-78
2022/04/19 09:55:53;;;;;;;10.77;7.07;;;17.20;69.30;;;;;;6253767;22;20008;-78
2022/04/19 09:58:19;;;;;;;9.23;6.32;;;17.00;67.80;;;;;;6254771;22;20000;-78
2022/04/19 10:00:47;;;;;;;10.32;6.13;;;16.90;68.90;;;;;;6251996;22;20021;-78
2022/04/19 10:08:38;;;;;;;12.68;6.60;;;16.80;70.00;;;;;;6254987;22;20012;-78
2022/04/19 10:11:04;;;;;;;10.63;6.55;;;16.80;69.60;;;;;;6255372;22;20404;-78
2022/04/19 10:13:32;;;;;;;8.65;6.20;;;16.90;69.70;;;;;;6255268;22;20005;-78
2022/04/19 10:16:02;;;;;;;25.08;14.55;;;16.70;68.00;;;;;;6254618;22;20040;-76
2022/04/19 10:18:27;;;;;;;12.93;6.75;;;16.80;69.40;;;;;;6230480;22;20095;-78
2022/04/19 10:20:58;;;;;;;9.45;6.13;;;16.70;68.50;;;;;;6258962;22;20300;-77
2022/04/19 10:23:41;;;;;;;9.70;5.93;;;16.80;68.20;;;;;;6230890;22;20008;-76
2022/04/19 10:26:24;;;;;;;8.93;6.18;;;17.10;66.50;;;;;;6253492;22;20015;-78
2022/04/19 10:28:51;;;;;;;9.45;6.03;;;17.30;67.40;;;;;;6254175;22;20112;-76
2022/04/19 10:31:34;;;;;;;9.15;6.07;;;17.40;66.10;;;;;;6255085;22;20005;-79
2022/04/19 10:34:04;;;;;;;9.98;6.47;;;17.50;64.90;;;;;;6254513;22;20040;-78
2022/04/19 10:36:37;;;;;;;9.05;5.80;;;17.40;68.90;;;;;;6254980;22;20083;-77
2022/04/19 10:39:12;;;;;;;8.75;5.50;;;17.90;63.90;;;;;;6253279;22;20005;-77
2022/04/19 10:42:05;;;;;;;7.22;5.32;;;18.00;64.80;;;;;;6256072;22;20036;-77
2022/04/19 10:44:36;;;;;;;9.02;5.10;;;18.50;63.00;;;;;;6257134;22;20001;-77
2022/04/19 10:47:18;;;;;;;7.22;4.72;;;18.70;61.60;;;;;;6256330;22;20874;-79
2022/04/19 10:50:07;;;;;;;8.05;5.40;;;18.80;59.70;;;;;;6253324;22;20063;-79
2022/04/19 10:52:39;;;;;;;7.95;4.80;;;19.00;59.60;;;;;;6228278;22;20000;-78
2022/04/19 10:55:17;;;;;;;6.45;4.95;;;18.90;59.10;;;;;;6254016;22;20460;-78
2022/04/19 11:00:37;;;;;;;7.90;4.80;;;18.60;61.20;;;;;;6253368;22;20012;-78
2022/04/19 11:03:05;;;;;;;7.05;4.80;;;18.60;61.40;;;;;;6226573;22;20005;-78
2022/04/19 11:05:43;;;;;;;7.45;5.00;;;18.30;61.90;;;;;;6226442;22;20012;-78
2022/04/19 11:08:26;;;;;;;7.13;5.25;;;18.80;64.60;;;;;;6226606;22;20011;-78
2022/04/19 11:11:21;;;;;;;7.57;4.97;;;18.80;63.70;;;;;;6226592;22;20456;-77
2022/04/19 11:14:16;;;;;;;8.80;4.53;;;18.70;60.20;;;;;;6225267;22;20019;-78
2022/04/19 11:16:43;;;;;;;5.78;4.30;;;18.70;62.20;;;;;;6252685;22;20088;-78
2022/04/19 11:19:25;;;;;;;4.70;3.80;;;18.80;60.60;;;;;;6225200;22;20104;-77
2022/04/19 11:22:01;;;;;;;6.55;4.20;;;19.20;61.50;;;;;;6254132;22;20347;-77
2022/04/19 11:24:58;;;;;;;5.45;3.60;;;18.90;58.80;;;;;;6255066;22;20003;-77
2022/04/19 11:27:43;;;;;;;6.80;5.15;;;19.00;59.60;;;;;;6254367;22;20005;-77
2022/04/19 11:30:13;;;;;;;8.45;6.25;;;19.10;58.60;;;;;;6253687;22;20001;-77
2022/04/19 11:32:39;;;;;;;6.38;4.63;;;19.10;60.70;;;;;;6227878;22;20452;-79
2022/04/19 11:35:05;;;;;;;5.50;3.50;;;19.20;60.00;;;;;;6253474;22;20013;-78
2022/04/19 11:37:31;;;;;;;22.00;17.60;;;19.30;60.80;;;;;;6253149;22;20005;-78
2022/04/19 11:48:29;;;;;;;6.57;4.22;;;19.50;58.20;;;;;;6253325;22;20488;-78
2022/04/19 11:51:12;;;;;;;29.17;20.95;;;19.60;56.20;;;;;;6253809;22;20059;-78
2022/04/19 11:53:38;;;;;;;10.10;6.50;;;20.00;57.50;;;;;;6254898;22;20012;-78
2022/04/19 11:56:06;;;;;;;28.92;17.88;;;19.90;57.30;;;;;;6255178;22;20089;-78
2022/04/19 11:58:32;;;;;;;14.32;9.23;;;20.00;57.80;;;;;;6253757;22;20005;-78
2022/04/19 12:01:06;;;;;;;8.57;4.25;;;19.80;57.80;;;;;;6253176;22;20012;-78
2022/04/19 12:03:37;;;;;;;4.20;3.60;;;19.90;55.90;;;;;;6253097;22;20456;-77
2022/04/19 12:06:07;;;;;;;4.40;3.55;;;20.00;58.10;;;;;;6252367;22;20016;-77
2022/04/19 12:08:41;;;;;;;4.95;4.18;;;20.10;59.10;;;;;;6253094;22;20000;-77
2022/04/19 12:11:09;;;;;;;6.28;5.00;;;20.10;57.60;;;;;;6226129;22;20443;-78
2022/04/19 12:13:36;;;;;;;10.18;6.38;;;20.20;56.30;;;;;;6254353;22;20012;-79
2022/04/19 12:16:09;;;;;;;7.53;5.38;;;20.20;53.90;;;;;;6253221;22;20032;-78
2022/04/19 12:18:37;;;;;;;5.95;4.03;;;19.90;54.00;;;;;;6253239;22;20079;-76
2022/04/19 12:21:04;;;;;;;12.18;7.53;;;20.10;54.30;;;;;;6254004;22;20088;-76
2022/04/19 12:23:30;;;;;;;5.78;3.85;;;20.30;54.10;;;;;;6227218;22;20054;-76
2022/04/19 12:26:01;;;;;;;6.57;4.00;;;20.30;52.10;;;;;;6253931;22;20092;-75
2022/04/19 12:28:41;;;;;;;6.60;4.15;;;20.10;53.30;;;;;;6255598;22;20008;-77
2022/04/19 12:31:07;;;;;;;7.03;5.15;;;20.10;54.50;;;;;;6252546;22;20011;-76
2022/04/19 12:33:34;;;;;;;4.78;3.78;;;20.30;54.80;;;;;;6225502;22;20410;-76
2022/04/19 12:36:00;;;;;;;5.43;3.50;;;20.30;56.70;;;;;;6252370;22;20012;-78
2022/04/19 12:38:32;;;;;;;4.47;3.30;;;20.40;56.80;;;;;;6252267;22;20076;-78
2022/04/19 12:40:58;;;;;;;5.18;3.72;;;20.90;57.20;;;;;;6260370;22;20445;-78
2022/04/19 12:43:46;;;;;;;6.65;3.25;;;20.90;58.90;;;;;;6253202;22;20024;-77
2022/04/19 12:46:15;;;;;;;14.60;9.50;;;21.20;54.40;;;;;;6251992;22;20478;-77
2022/04/19 12:48:52;;;;;;;15.35;9.55;;;21.10;53.50;;;;;;6224994;22;20043;-76
2022/04/19 12:51:21;;;;;;;27.70;20.27;;;21.10;52.80;;;;;;6252695;22;20009;-78
2022/04/19 12:54:04;;;;;;;14.43;12.38;;;21.10;53.00;;;;;;6252647;22;20012;-77
2022/04/19 12:56:29;;;;;;;8.63;5.45;;;21.00;50.70;;;;;;6225351;22;20148;-76
2022/04/19 12:58:55;;;;;;;12.43;8.98;;;21.20;51.50;;;;;;6252025;22;20004;-77
2022/04/19 13:01:20;;;;;;;3.35;2.47;;;21.30;53.40;;;;;;6252077;22;20044;-76
2022/04/19 13:03:46;;;;;;;3.88;3.17;;;20.90;52.00;;;;;;6252052;22;20353;-77
2022/04/19 13:14:25;;;;;;;5.05;2.90;;;20.80;52.60;;;;;;6253047;22;20009;-77
2022/04/19 13:16:50;;;;;;;3.75;2.80;;;21.10;53.60;;;;;;6252294;22;20008;-77
2022/04/19 13:19:16;;;;;;;3.75;2.55;;;21.40;53.00;;;;;;6252678;22;20009;-77
2022/04/19 13:21:41;;;;;;;3.47;2.38;;;21.60;50.10;;;;;;6253033;22;20035;-77
2022/04/19 13:24:07;;;;;;;4.43;2.60;;;21.50;50.40;;;;;;6253334;22;20433;-78
2022/04/19 13:26:34;;;;;;;3.53;2.80;;;21.50;50.50;;;;;;6252903;22;20019;-78
2022/04/19 13:29:03;;;;;;;3.72;2.90;;;21.80;48.90;;;;;;6254080;22;20008;-78
2022/04/19 13:31:28;;;;;;;3.33;2.55;;;21.70;50.10;;;;;;6254644;22;20012;-78
2022/04/19 13:33:54;;;;;;;5.10;3.00;;;21.60;51.50;;;;;;6254388;22;19997;-77
2022/04/19 13:36:19;;;;;;;2.80;2.50;;;21.70;49.80;;;;;;6253798;22;20060;-77
2022/04/19 13:38:45;;;;;;;2.78;2.10;;;21.50;50.50;;;;;;6253478;22;20100;-78
2022/04/19 13:41:11;;;;;;;3.13;2.33;;;22.00;51.80;;;;;;6253178;22;20019;-77
2022/04/19 13:43:40;;;;;;;2.58;2.17;;;22.20;51.00;;;;;;6253222;22;20384;-77
2022/04/19 13:46:06;;;;;;;2.80;2.13;;;23.00;48.60;;;;;;6225476;22;20032;-77
2022/04/19 13:48:33;;;;;;;3.92;2.28;;;23.20;48.30;;;;;;6252640;22;20449;-77
2022/04/19 13:50:59;;;;;;;4.45;2.75;;;23.80;46.30;;;;;;6253199;22;20013;-78
2022/04/19 13:53:28;;;;;;;4.00;2.50;;;24.30;46.70;;;;;;6253339;22;20301;-77
2022/04/19 13:55:56;;;;;;;3.72;2.47;;;24.50;48.60;;;;;;6252776;22;20013;-79
2022/04/19 13:58:22;;;;;;;3.47;2.15;;;25.20;46.60;;;;;;6252934;22;20001;-77
2022/04/19 14:00:47;;;;;;;3.63;2.63;;;25.60;43.90;;;;;;6253609;22;20012;-78
2022/04/19 14:03:13;;;;;;;4.88;2.20;;;26.40;40.10;;;;;;6253682;22;20008;-78
2022/04/19 14:05:39;;;;;;;3.30;2.45;;;27.20;39.80;;;;;;6254030;22;20467;-78
2022/04/19 14:08:07;;;;;;;3.55;2.80;;;26.90;38.90;;;;;;6252748;22;20440;-78
2022/04/19 14:10:33;;;;;;;3.85;2.50;;;27.10;41.30;;;;;;6252967;22;20012;-76
2022/04/19 14:12:58;;;;;;;3.72;2.60;;;27.30;42.20;;;;;;6252661;22;20432;-77
2022/04/19 14:15:24;;;;;;;4.68;2.13;;;26.40;41.30;;;;;;6252706;22;20015;-77
2022/04/19 14:17:49;;;;;;;3.42;2.38;;;27.50;39.10;;;;;;6253069;22;20005;-78
2022/04/19 14:20:16;;;;;;;5.05;2.53;;;28.80;36.60;;;;;;6252820;22;20440;-78
2022/04/19 14:22:41;;;;;;;4.20;2.45;;;28.40;37.60;;;;;;6253046;22;20009;-78
2022/04/19 14:25:07;;;;;;;2.70;2.20;;;27.70;38.80;;;;;;6252919;22;20013;-78
2022/04/19 14:27:33;;;;;;;3.35;2.40;;;28.00;37.90;;;;;;6252886;22;20009;-77
2022/04/19 14:35:30;;;;;;;3.75;2.50;;;27.10;39.70;;;;;;6253224;22;20103;-78
2022/04/19 14:37:55;;;;;;;2.60;2.38;;;26.60;38.90;;;;;;6229173;22;20005;-78
2022/04/19 14:40:21;;;;;;;2.25;2.05;;;27.80;39.70;;;;;;6256819;22;20128;-79
2022/04/19 14:42:46;;;;;;;4.53;2.45;;;28.50;39.70;;;;;;6253141;22;20381;-78
2022/04/19 14:45:13;;;;;;;3.33;2.30;;;29.30;36.60;;;;;;6252678;22;20527;-78
2022/04/19 14:47:39;;;;;;;3.88;2.53;;;28.90;36.80;;;;;;6254965;22;20005;-77
2022/04/19 14:50:05;;;;;;;4.65;2.45;;;28.90;36.50;;;;;;6253326;22;20008;-78
2022/04/19 14:52:31;;;;;;;2.92;2.60;;;29.90;35.30;;;;;;6253921;22;20036;-77
2022/04/19 14:54:56;;;;;;;4.75;2.38;;;28.50;38.10;;;;;;6254943;22;20451;-78
2022/04/19 14:57:23;;;;;;;4.35;2.58;;;27.90;36.40;;;;;;6255624;22;20365;-78
2022/04/19 14:59:49;;;;;;;2.22;2.03;;;28.50;38.50;;;;;;6254820;22;20063;-79
2022/04/19 15:02:15;;;;;;;3.00;2.47;;;28.90;36.80;;;;;;6255917;22;20384;-79
2022/04/19 15:04:41;;;;;;;4.85;2.45;;;29.40;37.00;;;;;;6257683;22;20015;-79
2022/04/19 15:07:07;;;;;;;3.05;2.75;;;29.60;35.00;;;;;;6253035;22;20343;-78
2022/04/19 15:09:33;;;;;;;3.92;2.40;;;30.00;36.20;;;;;;6253949;22;20009;-79
2022/04/19 15:12:02;;;;;;;2.50;2.28;;;30.40;36.00;;;;;;6225916;22;20008;-76
2022/04/19 15:14:30;;;;;;;3.13;2.83;;;31.80;34.10;;;;;;6252982;22;20039;-78
2022/04/19 15:16:56;;;;;;;3.67;2.75;;;32.20;32.80;;;;;;6252726;22;20063;-78
2022/04/19 15:19:22;;;;;;;7.10;2.65;;;31.60;33.60;;;;;;6256738;22;20008;-77
2022/04/19 15:21:48;;;;;;;5.97;2.70;;;31.60;32.90;;;;;;6256359;22;20062;-79
2022/04/19 15:24:15;;;;;;;4.70;2.80;;;31.00;32.80;;;;;;6258489;22;19993;-79
2022/04/19 15:26:45;;;;;;;5.25;3.03;;;33.10;32.80;;;;;;6258401;22;20004;-77
2022/04/19 15:29:12;;;;;;;3.05;2.70;;;32.60;31.60;;;;;;6226852;22;20000;-77
2022/04/19 15:31:38;;;;;;;4.97;2.53;;;32.30;33.60;;;;;;6224078;22;20036;-78
2022/04/19 15:34:04;;;;;;;3.05;2.72;;;31.80;31.90;;;;;;6262458;22;20016;-78
2022/04/19 15:36:32;;;;;;;5.50;2.53;;;31.50;32.30;;;;;;6260585;22;20019;-76
2022/04/19 15:38:58;;;;;;;5.88;2.53;;;32.60;30.20;;;;;;6259028;22;20016;-79
2022/04/19 15:41:27;;;;;;;5.68;2.28;;;32.00;32.00;;;;;;6259377;22;20035;-77
2022/04/19 15:43:53;;;;;;;2.80;2.42;;;32.60;31.40;;;;;;6228364;22;20008;-78
2022/04/19 15:46:19;;;;;;;2.75;2.50;;;32.70;31.30;;;;;;6258051;22;20012;-78
2022/04/19 15:48:45;;;;;;;3.60;2.20;;;32.30;31.90;;;;;;6252872;22;20012;-77
2022/04/19 15:51:16;;;;;;;3.28;1.92;;;31.50;34.30;;;;;;6225991;22;20114;-77
2022/04/19 15:53:43;;;;;;;2.45;2.20;;;31.80;32.80;;;;;;6256772;22;20024;-78
2022/04/19 15:56:08;;;;;;;6.05;2.45;;;31.50;30.50;;;;;;6236476;22;20004;-78
2022/04/19 15:58:34;;;;;;;2.50;2.20;;;30.80;32.50;;;;;;6262398;22;20482;-78
2022/04/19 16:01:01;;;;;;;2.45;2.05;;;30.50;33.40;;;;;;6260891;22;20012;-77
2022/04/19 16:03:26;;;;;;;3.67;2.03;;;28.20;35.20;;;;;;6228167;22;20008;-77
2022/04/19 16:05:52;;;;;;;3.13;2.15;;;26.90;37.60;;;;;;6227396;22;20008;-77
2022/04/19 16:08:18;;;;;;;4.07;2.20;;;27.50;38.00;;;;;;6253799;22;20005;-77
2022/04/19 16:10:44;;;;;;;5.35;1.92;;;28.00;37.40;;;;;;6252676;22;20082;-77
2022/04/19 16:13:12;;;;;;;2.92;2.05;;;28.20;36.50;;;;;;6225401;22;20357;-77
2022/04/19 16:15:41;;;;;;;1.92;1.73;;;26.50;37.60;;;;;;6252038;22;20008;-79
2022/04/19 16:23:36;;;;;;;3.80;1.70;;;27.40;36.10;;;;;;6254934;22;20008;-77
2022/04/19 16:26:03;;;;;;;4.80;2.00;;;25.80;39.40;;;;;;6253485;22;20511;-78
2022/04/19 16:28:32;;;;;;;4.40;2.15;;;24.60;42.10;;;;;;6252758;22;20433;-78
2022/04/19 16:30:59;;;;;;;3.42;1.80;;;25.30;40.50;;;;;;6254574;22;20017;-78
2022/04/19 16:33:25;;;;;;;1.98;1.60;;;26.80;40.20;;;;;;6253937;22;20512;-78
2022/04/19 16:35:51;;;;;;;3.40;2.05;;;27.80;37.90;;;;;;6254895;22;20008;-78
2022/04/19 16:38:20;;;;;;;3.28;1.48;;;28.10;38.00;;;;;;6254758;22;20001;-79
2022/04/19 16:40:50;;;;;;;4.15;1.65;;;27.60;37.80;;;;;;6253295;22;20109;-77
2022/04/19 16:43:17;;;;;;;2.80;1.90;;;28.10;38.80;;;;;;6252248;22;20103;-77
2022/04/19 16:45:43;;;;;;;2.25;1.92;;;28.30;38.40;;;;;;6225635;22;20092;-78
2022/04/19 16:48:11;;;;;;;2.40;1.77;;;29.60;36.40;;;;;;6251593;22;20514;-79
2022/04/19 16:50:38;;;;;;;4.10;2.88;;;30.10;33.60;;;;;;6252037;22;20004;-79
2022/04/19 16:53:06;;;;;;;4.22;1.80;;;29.80;34.70;;;;;;6225645;22;20009;-78
2022/04/19 16:55:31;;;;;;;1.85;1.63;;;29.10;36.80;;;;;;6252981;22;20015;-77
2022/04/19 16:57:58;;;;;;;1.85;1.60;;;27.60;38.10;;;;;;6252872;22;20329;-77
2022/04/19 17:00:25;;;;;;;3.53;1.92;;;27.60;38.40;;;;;;6252285;22;20013;-77
2022/04/19 17:03:56;;;;;;;2.20;1.40;;;27.20;39.00;;;;;;6225055;22;20012;-77
2022/04/19 17:08:09;;;;;;;1.88;1.67;;;23.40;45.00;;;;;;6284457;22;20020;-77
2022/04/19 17:10:35;;;;;;;2.10;1.65;;;22.10;48.30;;;;;;6256278;22;20012;-84
2022/04/19 17:13:04;;;;;;;5.53;1.52;;;21.40;48.90;;;;;;6284523;22;20079;-76
2022/04/19 17:15:31;;;;;;;3.65;1.95;;;20.90;50.80;;;;;;6285346;22;20008;-79
2022/04/19 17:17:57;;;;;;;4.30;1.92;;;20.10;52.70;;;;;;6256405;22;20456;-76
2022/04/19 17:22:59;;;;;;;3.10;1.73;;;18.70;55.00;;;;;;6283782;22;20530;-78
2022/04/19 17:25:25;;;;;;;97.47;40.05;;;18.30;57.10;;;;;;6282919;22;20008;-76
2022/04/19 17:27:50;;;;;;;13.05;6.90;;;18.10;57.70;;;;;;6282563;22;20028;-77
2022/04/19 17:30:16;;;;;;;7.03;3.30;;;17.70;58.70;;;;;;6282889;22;20039;-75
2022/04/19 17:32:41;;;;;;;15.85;8.15;;;17.50;59.80;;;;;;6283165;22;20008;-80
2022/04/19 17:35:08;;;;;;;8.77;3.30;;;17.20;60.80;;;;;;6282181;22;20015;-79
2022/04/19 17:37:33;;;;;;;6.25;1.95;;;17.00;63.30;;;;;;6284199;22;20000;-84
2022/04/19 17:40:01;;;;;;;2.90;1.80;;;16.80;62.50;;;;;;6282679;22;20107;-77
2022/04/19 17:42:28;;;;;;;1.88;1.60;;;16.60;61.40;;;;;;6282581;22;20348;-76
2022/04/19 17:44:54;;;;;;;1.88;1.52;;;16.50;62.70;;;;;;6282669;22;20496;-77
2022/04/19 17:47:19;;;;;;;1.77;1.20;;;16.30;61.30;;;;;;6282799;22;20014;-76